Terminal Aerodrome Forecast
Issued by NWS Twin Cities, MN

Home | Current Version | Previous Version | Text Only | Print | Product List | Glossary Off
Versions: 1 2 3 4 5 6 7 8 9 10 11 12 13 14 15 16 17 18 19 20 21 22 23 24 25 26 27 28 29 30

000
FTUS43 KMPX 121753 CCA
TAFMSP
TAF COR
KMSP 121753Z 1218/1324 20005KT P6SM BKN025 OVC070
     FM122000 17006KT P6SM VCSH OVC025
     FM130200 15004KT P6SM BKN040
     FM131100 29006KT P6SM -SN OVC012 PROB30 1311/1315 -FZDZ
     FM131500 32016G29KT P6SM VCSH OVC008
     FM131800 32018G30KT P6SM OVC025=

USA.gov is the U.S. government's official web portal to all federal, state and local government web resources and services.